Time;durP1;ratioP1;P1;durP2;ratioP2;P2;SDS_P1;SDS_P2;PMS_P1;PMS_P2;Temp;Humidity;BMP_temperature;BMP_pressure;BME280_temperature;BME280_humidity;BME280_pressure;Samples;Min_cycle;Max_cycle;Signal;HPM_P1;HPM_P2
2022/10/22 04:02:56;;;;;;;3.30;3.10;;;12.60;99.90;;;;;;6239307;23;20182;-69
2022/10/22 04:05:23;;;;;;;4.40;3.47;;;12.60;99.90;;;;;;6242461;23;20768;-69
2022/10/22 04:07:50;;;;;;;4.07;2.97;;;12.60;99.90;;;;;;6241579;23;20445;-69
2022/10/22 04:10:17;;;;;;;4.23;3.83;;;12.60;99.90;;;;;;6242241;23;20429;-69
2022/10/22 04:12:47;;;;;;;4.07;3.53;;;12.60;99.90;;;;;;6241235;23;20516;-69
2022/10/22 04:15:14;;;;;;;3.27;2.93;;;12.60;99.90;;;;;;6242678;23;20998;-69
2022/10/22 04:17:40;;;;;;;3.85;3.45;;;12.60;99.90;;;;;;6241763;23;20428;-69
2022/10/22 04:20:10;;;;;;;3.50;3.27;;;12.60;99.90;;;;;;6242213;23;20180;-69
2022/10/22 04:22:37;;;;;;;6.33;3.70;;;12.60;99.90;;;;;;6241649;23;20451;-70
2022/10/22 04:25:05;;;;;;;5.50;4.13;;;12.60;99.90;;;;;;6242739;23;20443;-70
2022/10/22 04:27:33;;;;;;;5.77;4.23;;;12.60;99.90;;;;;;6251246;23;20509;-69
2022/10/22 04:30:00;;;;;;;5.80;4.63;;;12.60;99.90;;;;;;6240110;23;20422;-69
2022/10/22 04:32:27;;;;;;;12.00;6.13;;;12.60;99.90;;;;;;6213486;23;20443;-69
2022/10/22 04:34:54;;;;;;;4.20;3.83;;;12.60;99.90;;;;;;6240639;23;20418;-69
2022/10/22 04:37:22;;;;;;;3.33;3.03;;;12.60;99.90;;;;;;6241072;23;20422;-69
2022/10/22 04:39:49;;;;;;;4.73;4.33;;;12.60;99.90;;;;;;6243248;23;20418;-70
2022/10/22 04:42:15;;;;;;;3.93;3.73;;;12.60;99.90;;;;;;6241382;23;20437;-68
2022/10/22 04:44:42;;;;;;;4.20;3.50;;;12.60;99.90;;;;;;6240362;23;20418;-68
2022/10/22 04:47:09;;;;;;;5.32;4.90;;;12.60;99.90;;;;;;6240963;23;20904;-69
2022/10/22 04:49:35;;;;;;;6.37;3.90;;;12.70;99.90;;;;;;6242185;23;20179;-69
2022/10/22 04:52:02;;;;;;;5.20;4.43;;;12.70;99.90;;;;;;6241755;23;20441;-69
2022/10/22 04:54:30;;;;;;;7.70;6.38;;;12.70;99.90;;;;;;6240480;23;20421;-70
2022/10/22 04:56:57;;;;;;;6.60;5.53;;;12.70;99.90;;;;;;6241628;23;20620;-70
2022/10/22 04:59:23;;;;;;;5.10;4.27;;;12.60;99.90;;;;;;6241180;23;20430;-68
2022/10/22 05:01:50;;;;;;;5.20;4.13;;;12.70;99.90;;;;;;6241373;23;20449;-69
2022/10/22 05:04:18;;;;;;;4.27;3.90;;;12.60;99.90;;;;;;6240872;23;20970;-69
2022/10/22 05:06:45;;;;;;;8.93;4.83;;;12.60;99.90;;;;;;6241506;23;20813;-69
2022/10/22 05:09:14;;;;;;;5.90;4.37;;;12.60;99.90;;;;;;6241304;23;20429;-69
2022/10/22 05:11:45;;;;;;;3.43;3.20;;;12.60;99.90;;;;;;6239865;23;20456;-68
2022/10/22 05:14:12;;;;;;;4.50;4.10;;;12.60;99.90;;;;;;6241043;23;20447;-69
2022/10/22 05:16:39;;;;;;;4.72;4.32;;;12.50;99.90;;;;;;6241402;23;20421;-69
2022/10/22 05:19:07;;;;;;;8.20;2.90;;;12.50;99.90;;;;;;6241078;23;20252;-69
2022/10/22 05:21:34;;;;;;;3.67;2.60;;;12.50;99.90;;;;;;6240867;23;20477;-70
2022/10/22 05:24:01;;;;;;;5.37;4.30;;;12.50;99.90;;;;;;6239971;23;20426;-69
2022/10/22 05:26:28;;;;;;;11.00;3.70;;;12.50;99.90;;;;;;6240175;23;20553;-69
2022/10/22 05:28:57;;;;;;;4.07;3.77;;;12.50;99.90;;;;;;6241298;23;20788;-69
2022/10/22 05:31:24;;;;;;;5.17;4.40;;;12.50;99.90;;;;;;6241117;23;20445;-70
2022/10/22 05:33:50;;;;;;;5.07;4.67;;;12.50;99.90;;;;;;6241159;23;20422;-69
2022/10/22 05:36:18;;;;;;;6.10;3.80;;;12.40;99.90;;;;;;6237920;23;20710;-70
2022/10/22 05:38:45;;;;;;;4.10;3.80;;;12.40;99.90;;;;;;6239645;23;20806;-70
2022/10/22 05:41:15;;;;;;;4.77;4.27;;;12.40;99.90;;;;;;6240948;23;20772;-68
2022/10/22 05:43:42;;;;;;;8.60;4.03;;;12.30;99.90;;;;;;6241275;23;20584;-67
2022/10/22 05:46:12;;;;;;;4.33;3.40;;;12.30;99.90;;;;;;6242688;23;20441;-69
2022/10/22 05:48:39;;;;;;;5.73;3.97;;;12.30;99.90;;;;;;6242675;23;20480;-70
2022/10/22 05:51:07;;;;;;;5.43;3.47;;;12.30;99.90;;;;;;6242867;23;20778;-70
2022/10/22 05:53:36;;;;;;;3.05;2.85;;;12.30;99.90;;;;;;6242234;23;20488;-70
2022/10/22 05:56:05;;;;;;;7.43;4.53;;;12.30;99.90;;;;;;6242349;23;20179;-70
2022/10/22 05:58:32;;;;;;;7.78;5.57;;;12.20;99.90;;;;;;6242943;23;20189;-70
2022/10/22 06:01:02;;;;;;;4.38;3.95;;;12.20;99.90;;;;;;6241674;23;20215;-70
2022/10/22 06:03:31;;;;;;;4.70;4.30;;;12.20;99.90;;;;;;6241608;23;20217;-70
2022/10/22 06:06:01;;;;;;;7.85;5.53;;;12.20;99.90;;;;;;6242519;23;20421;-70
2022/10/22 06:08:28;;;;;;;11.83;6.43;;;12.20;99.90;;;;;;6242386;23;20202;-70
2022/10/22 06:10:55;;;;;;;5.97;5.53;;;12.20;99.90;;;;;;6241749;23;20516;-70
2022/10/22 06:13:22;;;;;;;9.73;5.55;;;12.20;99.90;;;;;;6241849;23;20187;-71
2022/10/22 06:15:49;;;;;;;7.15;5.57;;;12.20;99.90;;;;;;6242927;23;20259;-71
2022/10/22 06:18:16;;;;;;;9.15;4.90;;;12.20;99.90;;;;;;6242527;23;20195;-69
2022/10/22 06:20:44;;;;;;;5.95;4.80;;;12.20;99.90;;;;;;6242541;23;20517;-70
2022/10/22 06:23:11;;;;;;;5.00;4.57;;;12.30;99.90;;;;;;6242065;23;20579;-70
2022/10/22 06:25:38;;;;;;;6.67;5.33;;;12.20;99.90;;;;;;6241748;23;20167;-69
2022/10/22 06:28:04;;;;;;;5.50;4.93;;;12.20;99.90;;;;;;6241638;23;20452;-69
2022/10/22 06:30:31;;;;;;;5.37;4.30;;;12.20;99.90;;;;;;6241976;23;20446;-69
2022/10/22 06:32:58;;;;;;;5.67;4.80;;;12.20;99.90;;;;;;6242190;23;20422;-68
2022/10/22 06:35:24;;;;;;;4.03;3.73;;;12.20;99.90;;;;;;6242589;23;20426;-69
2022/10/22 06:37:52;;;;;;;7.17;4.50;;;12.20;99.90;;;;;;6242485;23;20425;-69
2022/10/22 06:40:19;;;;;;;5.67;4.47;;;12.20;99.90;;;;;;6242097;23;20422;-69
2022/10/22 06:42:46;;;;;;;8.13;5.03;;;12.20;99.90;;;;;;6242017;23;20461;-69
2022/10/22 06:45:13;;;;;;;6.82;6.13;;;12.30;99.90;;;;;;6243111;23;20431;-69
2022/10/22 06:47:40;;;;;;;6.57;4.85;;;12.20;99.90;;;;;;6243026;23;20561;-69
2022/10/22 06:50:07;;;;;;;7.20;5.10;;;12.30;99.90;;;;;;6243091;23;20201;-69
2022/10/22 06:52:34;;;;;;;6.68;5.72;;;12.30;99.90;;;;;;6242410;23;20446;-70
2022/10/22 06:55:02;;;;;;;4.73;4.40;;;12.30;99.90;;;;;;6241736;23;20187;-69
2022/10/22 06:57:30;;;;;;;7.27;4.97;;;12.30;99.90;;;;;;6241960;23;20495;-69
2022/10/22 06:59:56;;;;;;;4.03;3.70;;;12.40;99.90;;;;;;6243118;23;20525;-70
2022/10/22 07:02:23;;;;;;;4.63;4.33;;;12.40;99.90;;;;;;6242230;23;20829;-69
2022/10/22 07:04:50;;;;;;;6.00;4.03;;;12.40;99.90;;;;;;6242012;23;20423;-69
2022/10/22 07:07:16;;;;;;;4.30;4.00;;;12.40;99.90;;;;;;6242163;23;20465;-69
2022/10/22 07:09:44;;;;;;;4.00;3.47;;;12.40;99.90;;;;;;6241242;23;20421;-68
2022/10/22 07:12:12;;;;;;;5.18;4.45;;;12.40;99.90;;;;;;6241190;23;20773;-69
2022/10/22 07:14:39;;;;;;;5.70;5.00;;;12.40;99.90;;;;;;6241494;23;20191;-69
2022/10/22 07:17:06;;;;;;;8.50;4.83;;;12.50;99.90;;;;;;6242450;23;20417;-69
2022/10/22 07:19:33;;;;;;;6.97;5.78;;;12.50;99.90;;;;;;6242095;23;20740;-68
2022/10/22 07:21:59;;;;;;;14.33;5.93;;;12.50;99.90;;;;;;6242370;23;20207;-71
2022/10/22 07:24:26;;;;;;;7.63;5.63;;;12.60;99.90;;;;;;6241271;23;20475;-69
2022/10/22 07:26:53;;;;;;;6.30;5.10;;;12.60;99.90;;;;;;6241457;23;20449;-69
2022/10/22 07:29:21;;;;;;;5.73;5.07;;;12.60;99.90;;;;;;6242423;23;20426;-69
2022/10/22 07:31:48;;;;;;;4.87;3.90;;;12.60;99.90;;;;;;6242021;23;20442;-69
2022/10/22 07:34:14;;;;;;;6.07;3.80;;;12.60;99.90;;;;;;6242095;23;20438;-69
2022/10/22 07:36:41;;;;;;;3.60;3.33;;;12.60;99.90;;;;;;6242374;23;20422;-69
2022/10/22 07:39:08;;;;;;;5.70;4.47;;;12.60;99.90;;;;;;6242219;23;20429;-69
2022/10/22 07:41:34;;;;;;;9.10;6.20;;;12.60;99.90;;;;;;6241313;23;20449;-69
2022/10/22 07:44:01;;;;;;;5.40;5.00;;;12.60;99.90;;;;;;6241177;23;20428;-69
2022/10/22 07:46:29;;;;;;;5.23;4.30;;;12.70;99.90;;;;;;6242481;23;20421;-69
2022/10/22 07:48:56;;;;;;;8.13;4.13;;;12.70;99.90;;;;;;6242364;23;20803;-68
2022/10/22 07:51:23;;;;;;;6.93;5.03;;;12.80;99.90;;;;;;6242532;23;20449;-69
2022/10/22 07:53:49;;;;;;;6.80;5.20;;;12.80;99.90;;;;;;6240749;23;20422;-69
2022/10/22 07:56:16;;;;;;;7.20;5.30;;;12.90;99.90;;;;;;6241148;23;20886;-69
2022/10/22 07:58:43;;;;;;;10.10;6.07;;;12.90;99.90;;;;;;6242485;23;20488;-69
2022/10/22 08:01:09;;;;;;;11.20;6.67;;;13.00;99.90;;;;;;6241585;23;20809;-69
2022/10/22 08:03:37;;;;;;;5.77;4.90;;;13.00;99.90;;;;;;6240340;23;20836;-68
2022/10/22 08:06:04;;;;;;;5.13;4.40;;;13.10;99.90;;;;;;6241470;23;20710;-69
2022/10/22 08:08:32;;;;;;;4.87;4.43;;;13.20;99.90;;;;;;6240138;23;20454;-70
2022/10/22 08:11:01;;;;;;;6.00;4.77;;;13.20;99.90;;;;;;6242570;23;20450;-70
2022/10/22 08:13:29;;;;;;;5.47;4.97;;;13.30;99.90;;;;;;6238635;23;20427;-69
2022/10/22 08:15:56;;;;;;;5.77;5.13;;;13.30;99.90;;;;;;6240765;23;20472;-69
2022/10/22 08:18:23;;;;;;;5.43;4.93;;;13.40;99.90;;;;;;6241552;23;20422;-70
2022/10/22 08:20:51;;;;;;;4.70;4.40;;;13.40;99.90;;;;;;6241872;23;20443;-69
2022/10/22 08:23:18;;;;;;;5.83;5.30;;;13.50;99.90;;;;;;6240116;23;20486;-69
2022/10/22 08:25:44;;;;;;;9.27;5.40;;;13.60;99.90;;;;;;6241730;23;20450;-69
2022/10/22 08:28:11;;;;;;;7.67;5.17;;;13.70;99.90;;;;;;6241327;23;20521;-70
2022/10/22 08:30:39;;;;;;;6.60;4.67;;;13.70;99.90;;;;;;6239441;23;20447;-70
2022/10/22 08:33:06;;;;;;;7.70;6.27;;;13.80;99.90;;;;;;6239749;23;20434;-70
2022/10/22 08:35:32;;;;;;;5.10;4.70;;;13.80;99.90;;;;;;6241081;23;20502;-71
2022/10/22 08:38:01;;;;;;;5.87;3.77;;;13.90;99.90;;;;;;6240572;23;20850;-70
2022/10/22 08:40:31;;;;;;;4.50;4.10;;;14.00;99.90;;;;;;6240284;23;21128;-70
2022/10/22 08:43:36;;;;;;;13.53;4.97;;;14.00;99.90;;;;;;6239093;23;20521;-70
2022/10/22 08:46:16;;;;;;;5.83;4.17;;;14.10;99.90;;;;;;6240937;23;20403;-70
2022/10/22 08:48:46;;;;;;;6.90;4.90;;;14.20;99.90;;;;;;6241621;23;20438;-70
2022/10/22 08:51:17;;;;;;;8.67;5.00;;;14.20;99.90;;;;;;6241137;23;20443;-69
2022/10/22 08:53:57;;;;;;;5.00;4.57;;;14.30;99.90;;;;;;6240663;23;20403;-70
2022/10/22 08:56:24;;;;;;;4.43;4.10;;;14.40;99.90;;;;;;6240029;23;20480;-70
2022/10/22 08:58:55;;;;;;;6.57;4.90;;;14.40;99.90;;;;;;6240376;23;20427;-70
2022/10/22 09:01:29;;;;;;;5.07;4.57;;;14.40;99.90;;;;;;6240210;23;20474;-69
2022/10/22 09:04:03;;;;;;;4.87;4.43;;;14.50;99.90;;;;;;6241205;23;20411;-70
2022/10/22 09:06:33;;;;;;;4.07;3.60;;;14.50;99.90;;;;;;6240797;23;20419;-70
2022/10/22 09:09:02;;;;;;;3.83;3.50;;;14.60;99.90;;;;;;6241322;23;20446;-70
2022/10/22 09:11:32;;;;;;;3.37;3.17;;;14.60;99.90;;;;;;6239431;23;20960;-70
2022/10/22 09:14:00;;;;;;;4.30;4.00;;;14.70;99.90;;;;;;6241067;23;20855;-70
2022/10/22 09:16:37;;;;;;;5.50;4.00;;;14.80;99.90;;;;;;6241200;23;20429;-69
2022/10/22 09:19:15;;;;;;;5.47;5.00;;;14.80;99.90;;;;;;6242534;23;20409;-70
2022/10/22 09:21:53;;;;;;;4.33;3.90;;;14.90;99.90;;;;;;6242708;23;20464;-70
2022/10/22 09:24:31;;;;;;;2.17;2.10;;;15.00;99.90;;;;;;6252486;23;20419;-70
2022/10/22 09:26:59;;;;;;;7.27;3.87;;;15.00;99.90;;;;;;6243088;23;20418;-71
2022/10/22 09:29:32;;;;;;;5.10;4.80;;;15.10;99.90;;;;;;6243332;23;20427;-68
2022/10/22 09:31:58;;;;;;;4.00;3.70;;;15.10;99.90;;;;;;6243129;23;20498;-68
2022/10/22 09:34:25;;;;;;;5.70;3.60;;;15.20;99.90;;;;;;6243282;23;20747;-69
2022/10/22 09:36:58;;;;;;;2.90;2.80;;;15.20;99.90;;;;;;6243329;23;20427;-68
2022/10/22 09:39:28;;;;;;;6.77;2.80;;;15.30;99.90;;;;;;6252872;23;20437;-69
2022/10/22 09:41:55;;;;;;;3.43;3.23;;;15.40;99.90;;;;;;6243043;23;20445;-69
2022/10/22 09:44:21;;;;;;;5.57;3.47;;;15.40;99.90;;;;;;6242742;23;20423;-69
2022/10/22 09:46:48;;;;;;;3.83;3.63;;;15.50;99.90;;;;;;6243673;23;20794;-69
2022/10/22 09:49:17;;;;;;;3.07;2.90;;;15.50;99.90;;;;;;6242033;23;20444;-69
2022/10/22 09:51:51;;;;;;;3.07;2.87;;;15.50;99.90;;;;;;6240077;23;20459;-69
2022/10/22 09:54:20;;;;;;;3.30;3.10;;;15.60;99.90;;;;;;6242836;23;20405;-70
2022/10/22 09:56:55;;;;;;;2.60;2.50;;;15.60;99.90;;;;;;6242333;23;20431;-70
2022/10/22 09:59:28;;;;;;;2.43;2.23;;;15.60;99.90;;;;;;6242667;23;20403;-69
2022/10/22 10:02:11;;;;;;;3.17;2.97;;;15.60;99.90;;;;;;6243061;23;20537;-69
2022/10/22 10:04:42;;;;;;;2.20;2.20;;;15.70;99.90;;;;;;6242941;23;20413;-69
2022/10/22 10:07:16;;;;;;;2.27;2.17;;;15.70;99.90;;;;;;6242876;23;20415;-69
2022/10/22 10:09:43;;;;;;;7.40;2.77;;;15.80;99.90;;;;;;6242453;23;20751;-69
2022/10/22 10:12:22;;;;;;;2.43;2.33;;;15.80;99.90;;;;;;6241950;23;20447;-69
2022/10/22 10:15:02;;;;;;;2.47;2.27;;;15.90;99.90;;;;;;6240723;23;20525;-69
2022/10/22 10:17:39;;;;;;;4.70;3.17;;;15.90;99.90;;;;;;6241015;22;20468;-68
2022/10/22 10:20:22;;;;;;;2.87;2.27;;;15.90;99.90;;;;;;6242951;23;20815;-66
2022/10/22 10:22:58;;;;;;;2.40;2.30;;;16.00;99.90;;;;;;6242073;23;20744;-66
2022/10/22 10:25:45;;;;;;;1.93;1.93;;;16.10;99.90;;;;;;6243394;22;20409;-67
2022/10/22 10:28:34;;;;;;;3.60;2.20;;;16.10;99.90;;;;;;6252023;23;20512;-66
2022/10/22 10:31:10;;;;;;;1.87;1.80;;;16.20;99.90;;;;;;6242818;23;20414;-66
2022/10/22 10:33:46;;;;;;;2.27;1.87;;;16.30;99.90;;;;;;6242307;23;20404;-69
2022/10/22 10:36:22;;;;;;;2.50;1.77;;;16.40;99.90;;;;;;6243368;22;20441;-66
2022/10/22 10:38:57;;;;;;;1.43;1.43;;;16.40;99.90;;;;;;6242904;23;20683;-66
2022/10/22 10:41:38;;;;;;;5.40;2.90;;;16.50;99.90;;;;;;6242580;23;20411;-69
2022/10/22 10:44:29;;;;;;;1.70;1.63;;;16.60;99.90;;;;;;6242725;23;20442;-68
2022/10/22 10:47:12;;;;;;;1.87;1.77;;;16.60;99.90;;;;;;6229171;22;20463;-70
2022/10/22 10:49:39;;;;;;;2.20;2.10;;;16.60;99.90;;;;;;6242984;23;20520;-65
2022/10/22 10:52:13;;;;;;;5.03;2.40;;;16.60;99.90;;;;;;6242598;23;20775;-66
2022/10/22 10:54:46;;;;;;;1.63;1.63;;;16.70;99.90;;;;;;6241676;23;20402;-69
2022/10/22 10:57:24;;;;;;;1.63;1.60;;;16.70;99.90;;;;;;6242675;22;20451;-65
2022/10/22 11:00:03;;;;;;;1.90;1.70;;;16.80;99.90;;;;;;6242192;23;20402;-65
2022/10/22 11:02:57;;;;;;;1.83;1.73;;;16.80;99.90;;;;;;6242923;23;20409;-68
2022/10/22 11:05:37;;;;;;;2.77;2.67;;;16.90;99.90;;;;;;6227357;22;20941;-69
2022/10/22 11:08:10;;;;;;;1.60;1.60;;;17.00;99.90;;;;;;6242433;23;20478;-69
2022/10/22 11:10:40;;;;;;;2.50;2.30;;;17.00;99.90;;;;;;6242615;23;20509;-66
2022/10/22 11:13:15;;;;;;;1.20;1.20;;;17.10;99.90;;;;;;6241548;23;20924;-68
2022/10/22 11:15:47;;;;;;;1.80;1.70;;;17.10;99.90;;;;;;6241586;22;20413;-66
2022/10/22 11:18:20;;;;;;;2.37;1.40;;;17.10;99.90;;;;;;6242871;23;20461;-67
2022/10/22 11:21:03;;;;;;;1.43;1.43;;;17.20;99.90;;;;;;6242814;23;20406;-67
2022/10/22 11:23:37;;;;;;;2.83;2.07;;;17.30;99.90;;;;;;6242417;23;20436;-66
2022/10/22 11:26:10;;;;;;;2.77;1.90;;;17.40;99.90;;;;;;6242386;22;20440;-68
2022/10/22 11:28:42;;;;;;;1.50;1.50;;;17.40;99.90;;;;;;6242403;23;20431;-68
2022/10/22 11:31:14;;;;;;;1.87;1.77;;;17.50;99.90;;;;;;6243581;23;20484;-66
2022/10/22 11:33:48;;;;;;;2.93;1.77;;;17.50;99.90;;;;;;6243428;23;20435;-69
2022/10/22 11:36:18;;;;;;;1.30;1.30;;;17.50;99.90;;;;;;6244651;22;20444;-68
2022/10/22 11:38:45;;;;;;;12.87;2.03;;;17.60;99.90;;;;;;6249159;23;20572;-67
2022/10/22 11:41:14;;;;;;;4.60;1.53;;;17.60;99.90;;;;;;6244229;23;20476;-68
2022/10/22 11:43:58;;;;;;;1.67;1.67;;;17.70;99.90;;;;;;6244414;23;20422;-67
2022/10/22 11:46:33;;;;;;;8.57;1.40;;;17.80;99.90;;;;;;6243199;22;20442;-68
2022/10/22 11:49:15;;;;;;;1.47;1.20;;;17.90;99.90;;;;;;6242694;23;20502;-65
2022/10/22 11:51:43;;;;;;;1.60;1.60;;;17.90;99.90;;;;;;6242946;23;20461;-66
2022/10/22 11:54:29;;;;;;;1.60;1.20;;;18.00;99.90;;;;;;6241761;23;20422;-65
2022/10/22 11:57:13;;;;;;;1.53;1.43;;;18.00;99.90;;;;;;6240583;22;20936;-67
2022/10/22 11:59:44;;;;;;;1.50;1.50;;;18.00;99.90;;;;;;6242533;23;20424;-68
2022/10/22 12:02:41;;;;;;;1.43;1.27;;;18.00;99.90;;;;;;6242251;23;20525;-67
2022/10/22 12:05:19;;;;;;;1.40;1.40;;;18.00;99.90;;;;;;6222377;23;20764;-68
2022/10/22 12:07:53;;;;;;;1.20;1.20;;;18.10;99.90;;;;;;6241231;22;20553;-68
2022/10/22 12:10:21;;;;;;;0.93;0.93;;;18.10;99.90;;;;;;6242585;23;20477;-69
2022/10/22 12:12:55;;;;;;;1.83;1.83;;;18.10;99.90;;;;;;6252020;23;20414;-70
2022/10/22 12:15:26;;;;;;;1.30;1.30;;;18.20;99.90;;;;;;6242553;23;20417;-69
2022/10/22 12:18:00;;;;;;;0.80;0.80;;;18.40;99.90;;;;;;6242404;23;20402;-66
2022/10/22 12:20:27;;;;;;;0.80;0.80;;;18.50;99.90;;;;;;6243145;23;20749;-67
2022/10/22 12:22:57;;;;;;;1.17;1.17;;;18.60;99.90;;;;;;6241211;23;20422;-69
2022/10/22 12:25:25;;;;;;;1.30;1.30;;;18.60;99.90;;;;;;6241883;23;20453;-66
2022/10/22 12:27:55;;;;;;;0.83;0.83;;;18.70;99.90;;;;;;6239835;23;20441;-67
2022/10/22 12:30:24;;;;;;;1.17;1.17;;;18.70;99.90;;;;;;6242232;23;20935;-68
2022/10/22 12:32:53;;;;;;;1.33;1.33;;;18.70;99.90;;;;;;6241668;23;20427;-66
2022/10/22 12:35:24;;;;;;;1.33;1.33;;;18.70;99.90;;;;;;6242207;23;20445;-66
2022/10/22 12:37:51;;;;;;;1.33;1.23;;;18.70;99.90;;;;;;6240841;23;20730;-69
2022/10/22 12:40:21;;;;;;;1.00;1.00;;;18.70;99.90;;;;;;6242238;23;20430;-67
2022/10/22 12:42:53;;;;;;;1.90;1.80;;;18.60;99.90;;;;;;6241649;23;20529;-65
2022/10/22 12:45:22;;;;;;;4.30;2.03;;;18.50;99.90;;;;;;6242397;23;20850;-67
2022/10/22 12:47:52;;;;;;;12.20;1.63;;;18.50;99.90;;;;;;6241222;22;20450;-68
2022/10/22 12:50:23;;;;;;;1.53;1.53;;;18.50;99.90;;;;;;6242515;23;20421;-65
2022/10/22 12:52:50;;;;;;;1.70;1.60;;;18.40;99.90;;;;;;6241426;23;20745;-66
2022/10/22 12:55:19;;;;;;;2.00;1.90;;;18.40;99.90;;;;;;6241918;23;20909;-66
2022/10/22 12:57:47;;;;;;;1.70;1.70;;;18.40;99.90;;;;;;6240783;22;20948;-67
2022/10/22 13:00:22;;;;;;;1.27;1.27;;;18.30;99.90;;;;;;6242275;23;20418;-66
2022/10/22 13:02:49;;;;;;;1.63;1.63;;;18.40;99.90;;;;;;6241246;23;20433;-70
2022/10/22 13:05:26;;;;;;;2.63;2.27;;;18.30;99.90;;;;;;6240575;23;20423;-71
2022/10/22 13:07:54;;;;;;;1.50;1.50;;;18.30;99.90;;;;;;6240409;23;20414;-67
2022/10/22 13:10:25;;;;;;;1.77;1.77;;;18.20;99.90;;;;;;6242164;23;20779;-69
2022/10/22 13:12:55;;;;;;;2.17;2.07;;;18.20;99.90;;;;;;6240778;23;20422;-66
2022/10/22 13:15:35;;;;;;;12.60;2.10;;;18.10;99.90;;;;;;6242315;23;20406;-66
2022/10/22 13:18:03;;;;;;;1.50;1.50;;;18.10;99.90;;;;;;6241669;23;20453;-67
2022/10/22 13:20:32;;;;;;;1.90;1.80;;;18.10;99.90;;;;;;6241670;23;20471;-69
2022/10/22 13:23:01;;;;;;;2.93;1.60;;;18.10;99.90;;;;;;6241208;23;20423;-66
2022/10/22 13:25:30;;;;;;;2.10;2.10;;;18.20;99.90;;;;;;6240901;22;20508;-66
2022/10/22 13:27:59;;;;;;;1.77;1.70;;;18.30;99.90;;;;;;6240079;23;21053;-65
2022/10/22 13:30:28;;;;;;;2.23;2.20;;;18.30;99.90;;;;;;6241910;23;20422;-68
2022/10/22 13:32:57;;;;;;;1.90;1.80;;;18.40;99.90;;;;;;6241071;23;20425;-66
2022/10/22 13:35:26;;;;;;;1.70;1.70;;;18.50;99.90;;;;;;6241348;23;20434;-66
2022/10/22 13:37:54;;;;;;;1.93;1.80;;;18.50;99.90;;;;;;6241443;23;20419;-68
2022/10/22 13:40:21;;;;;;;1.80;1.80;;;18.60;99.90;;;;;;6241463;23;20454;-67
2022/10/22 13:42:48;;;;;;;1.70;1.60;;;18.60;99.90;;;;;;6241098;23;20446;-68
2022/10/22 13:45:16;;;;;;;1.40;1.40;;;18.60;99.90;;;;;;6240601;23;20477;-67
2022/10/22 13:47:44;;;;;;;1.53;1.53;;;18.60;99.90;;;;;;6240859;22;20434;-67
2022/10/22 13:50:14;;;;;;;1.60;1.50;;;18.70;99.90;;;;;;6242241;23;20529;-66
2022/10/22 13:52:43;;;;;;;2.73;1.70;;;18.70;99.90;;;;;;6240444;23;20569;-68
2022/10/22 13:55:16;;;;;;;1.63;1.63;;;18.60;99.90;;;;;;6241095;23;20432;-68
2022/10/22 13:57:43;;;;;;;1.33;1.33;;;18.60;99.90;;;;;;6241512;22;20462;-66
2022/10/22 14:00:16;;;;;;;1.10;1.07;;;18.50;99.90;;;;;;6241755;23;20419;-67
2022/10/22 14:02:43;;;;;;;1.43;1.43;;;18.40;99.90;;;;;;6242123;23;21054;-69
2022/10/22 14:05:10;;;;;;;1.40;1.40;;;18.30;99.90;;;;;;6242816;23;20421;-66
2022/10/22 14:07:38;;;;;;;1.77;1.77;;;18.30;99.90;;;;;;6242959;22;20746;-66
2022/10/22 14:10:15;;;;;;;1.90;1.43;;;18.30;99.90;;;;;;6244273;23;20504;-68
2022/10/22 14:12:42;;;;;;;2.20;1.73;;;18.40;99.90;;;;;;6242841;23;20422;-65
2022/10/22 14:15:11;;;;;;;1.50;1.50;;;18.40;99.90;;;;;;6243101;23;20888;-68
2022/10/22 14:17:39;;;;;;;1.43;1.43;;;18.50;99.90;;;;;;6243090;22;20451;-65
2022/10/22 14:20:06;;;;;;;1.67;1.67;;;18.50;99.90;;;;;;6244228;23;20430;-66
2022/10/22 14:22:33;;;;;;;1.23;1.23;;;18.40;99.90;;;;;;6242786;23;20430;-71
2022/10/22 14:25:00;;;;;;;2.20;2.00;;;18.40;99.90;;;;;;6243467;23;20437;-68
2022/10/22 14:27:28;;;;;;;1.03;1.03;;;18.40;99.90;;;;;;6242122;22;20446;-66
2022/10/22 14:29:54;;;;;;;1.80;1.70;;;18.40;99.90;;;;;;6243690;23;20745;-67
2022/10/22 14:32:21;;;;;;;1.87;1.40;;;18.40;99.90;;;;;;6243242;23;20710;-67
2022/10/22 14:34:48;;;;;;;1.33;0.87;;;18.40;99.90;;;;;;6243102;23;20444;-67
2022/10/22 14:37:19;;;;;;;1.40;1.40;;;18.40;99.90;;;;;;6243422;22;20453;-68
2022/10/22 14:39:51;;;;;;;1.10;1.10;;;18.40;99.90;;;;;;6242701;23;20431;-67
2022/10/22 14:42:18;;;;;;;1.10;1.00;;;18.40;99.90;;;;;;6242616;23;20411;-69
2022/10/22 14:44:46;;;;;;;1.60;1.50;;;18.40;99.90;;;;;;6242077;23;20472;-67
2022/10/22 14:47:13;;;;;;;1.87;1.80;;;18.40;99.90;;;;;;6243714;22;20443;-64
2022/10/22 14:49:40;;;;;;;6.73;1.57;;;18.30;99.90;;;;;;6243697;23;20560;-68
2022/10/22 14:52:06;;;;;;;1.90;1.63;;;18.20;99.90;;;;;;6243652;23;20430;-67
2022/10/22 14:54:34;;;;;;;2.00;1.30;;;18.20;99.90;;;;;;6242546;23;20422;-67
2022/10/22 14:57:00;;;;;;;1.40;1.40;;;18.10;99.90;;;;;;6242744;22;20500;-72
2022/10/22 14:59:27;;;;;;;0.93;0.93;;;18.10;99.90;;;;;;6242608;23;20419;-67
2022/10/22 15:01:55;;;;;;;2.73;1.00;;;18.10;99.90;;;;;;6243386;23;20426;-68
2022/10/22 15:04:24;;;;;;;1.47;1.37;;;18.00;99.90;;;;;;6243440;23;20427;-69
2022/10/22 15:06:55;;;;;;;1.33;1.33;;;18.00;99.90;;;;;;6243322;22;20714;-66
2022/10/22 15:09:22;;;;;;;1.53;1.53;;;18.00;99.90;;;;;;6241980;23;20570;-66
2022/10/22 15:11:48;;;;;;;1.27;1.17;;;18.00;99.90;;;;;;6242645;23;20427;-68
2022/10/22 15:14:15;;;;;;;1.63;1.57;;;18.00;99.90;;;;;;6241612;23;20422;-67
2022/10/22 15:16:42;;;;;;;1.33;1.23;;;18.00;99.90;;;;;;6241665;22;20458;-67
2022/10/22 15:19:10;;;;;;;1.33;1.33;;;18.00;99.90;;;;;;6242664;23;20416;-67
2022/10/22 15:21:37;;;;;;;1.03;1.03;;;18.00;99.90;;;;;;6242812;23;20444;-65
2022/10/22 15:24:04;;;;;;;1.80;1.70;;;17.90;99.90;;;;;;6241473;23;20936;-65
2022/10/22 15:26:31;;;;;;;1.60;1.60;;;17.80;99.90;;;;;;6242988;22;20443;-66
2022/10/22 15:28:58;;;;;;;1.40;1.30;;;17.70;99.90;;;;;;6241313;23;20770;-64
2022/10/22 15:31:44;;;;;;;2.97;1.10;;;17.70;99.90;;;;;;6243139;23;20906;-65
2022/10/22 15:34:12;;;;;;;1.30;1.30;;;17.50;99.90;;;;;;6242446;23;20438;-67
2022/10/22 15:36:39;;;;;;;1.40;0.90;;;17.50;99.90;;;;;;6242113;22;20444;-65
2022/10/22 15:39:09;;;;;;;3.60;1.77;;;17.40;99.90;;;;;;6242237;23;20532;-67
2022/10/22 15:41:36;;;;;;;3.50;1.20;;;17.30;99.90;;;;;;6240785;23;20424;-66
2022/10/22 15:44:04;;;;;;;2.63;1.83;;;17.20;99.90;;;;;;6240151;23;20919;-64
2022/10/22 15:46:32;;;;;;;1.73;0.90;;;17.20;99.90;;;;;;6241805;22;20439;-66
2022/10/22 15:48:59;;;;;;;1.63;1.63;;;17.10;99.90;;;;;;6242147;23;20418;-66
2022/10/22 15:51:27;;;;;;;1.10;1.10;;;17.00;99.90;;;;;;6241657;23;20422;-66
2022/10/22 15:53:55;;;;;;;1.40;1.30;;;17.00;99.90;;;;;;6241213;23;20429;-65
2022/10/22 15:56:23;;;;;;;1.50;1.50;;;16.90;99.90;;;;;;6240846;22;21250;-66
2022/10/22 15:58:53;;;;;;;1.77;1.57;;;16.90;99.90;;;;;;6241337;23;20423;-65
2022/10/22 16:01:20;;;;;;;2.13;2.13;;;16.90;99.90;;;;;;6242327;23;20433;-67
2022/10/22 16:03:47;;;;;;;1.03;1.03;;;16.90;99.90;;;;;;6242151;23;20421;-64
2022/10/22 16:06:13;;;;;;;2.00;1.40;;;16.80;99.90;;;;;;6242066;22;20442;-66
2022/10/22 16:08:41;;;;;;;1.10;1.10;;;16.80;99.90;;;;;;6242267;23;20421;-65
2022/10/22 16:11:08;;;;;;;2.27;1.57;;;16.70;99.90;;;;;;6241329;23;20447;-67
2022/10/22 16:13:36;;;;;;;2.77;0.73;;;16.60;99.90;;;;;;6241833;23;20929;-65
2022/10/22 16:16:06;;;;;;;1.73;0.90;;;16.60;99.90;;;;;;6241608;22;20529;-66
2022/10/22 16:18:33;;;;;;;2.40;1.07;;;16.50;99.90;;;;;;6241688;23;20409;-66
2022/10/22 16:20:59;;;;;;;1.13;1.13;;;16.50;99.90;;;;;;6242644;23;20423;-65
2022/10/22 16:23:26;;;;;;;1.37;1.23;;;16.40;99.90;;;;;;6251020;23;20421;-67
2022/10/22 16:25:54;;;;;;;1.27;1.27;;;16.40;99.90;;;;;;6241603;22;20461;-65
2022/10/22 16:28:21;;;;;;;3.20;1.13;;;16.40;99.90;;;;;;6240890;23;20530;-66
2022/10/22 16:30:48;;;;;;;1.40;1.40;;;16.40;99.90;;;;;;6241800;23;20445;-65
2022/10/22 16:33:14;;;;;;;1.20;1.20;;;16.40;99.90;;;;;;6242168;23;20421;-68
2022/10/22 16:35:41;;;;;;;4.90;1.67;;;16.30;99.90;;;;;;6241847;22;20421;-66
2022/10/22 16:38:09;;;;;;;6.10;2.60;;;16.30;99.90;;;;;;6241434;23;20445;-68
2022/10/22 16:40:36;;;;;;;1.60;1.50;;;16.30;99.90;;;;;;6240585;23;20439;-65
2022/10/22 16:43:04;;;;;;;5.53;1.87;;;16.30;99.90;;;;;;6241048;23;20485;-68
2022/10/22 16:45:31;;;;;;;2.17;2.17;;;16.20;99.90;;;;;;6242031;22;20423;-67
2022/10/22 16:47:57;;;;;;;1.60;1.60;;;16.20;99.90;;;;;;6240983;23;20431;-65
2022/10/22 16:50:24;;;;;;;1.73;1.73;;;16.20;99.90;;;;;;6241872;23;20449;-65
2022/10/22 16:52:51;;;;;;;1.10;1.10;;;16.20;99.90;;;;;;6240479;23;20447;-69
2022/10/22 16:55:18;;;;;;;2.17;1.90;;;16.10;99.90;;;;;;6241563;23;20451;-66
2022/10/22 16:57:50;;;;;;;3.70;1.33;;;16.10;99.90;;;;;;6241502;22;20550;-64
2022/10/22 17:00:19;;;;;;;2.13;1.50;;;16.10;99.90;;;;;;6241552;23;20456;-64